sensor_id;sensor_type;location;lat;lon;timestamp;P1;durP1;ratioP1;P2;durP2;ratioP2
39314;SDS011;28703;44.412;11.918;2023-02-25T00:00:27;24.10;;;13.05;;
39314;SDS011;28703;44.412;11.918;2023-02-25T00:02:55;29.45;;;13.27;;
39314;SDS011;28703;44.412;11.918;2023-02-25T00:05:23;28.17;;;13.43;;
39314;SDS011;28703;44.412;11.918;2023-02-25T00:07:50;26.80;;;12.52;;
39314;SDS011;28703;44.412;11.918;2023-02-25T00:10:16;29.58;;;13.13;;
39314;SDS011;28703;44.412;11.918;2023-02-25T00:12:42;31.15;;;13.25;;
39314;SDS011;28703;44.412;11.918;2023-02-25T00:15:08;30.80;;;13.43;;
39314;SDS011;28703;44.412;11.918;2023-02-25T00:17:35;37.08;;;13.25;;
39314;SDS011;28703;44.412;11.918;2023-02-25T00:20:05;28.77;;;12.55;;
39314;SDS011;28703;44.412;11.918;2023-02-25T00:22:34;35.53;;;13.15;;
39314;SDS011;28703;44.412;11.918;2023-02-25T00:25:00;25.52;;;12.40;;
39314;SDS011;28703;44.412;11.918;2023-02-25T00:27:26;33.88;;;12.82;;
39314;SDS011;28703;44.412;11.918;2023-02-25T00:29:53;26.77;;;13.02;;
39314;SDS011;28703;44.412;11.918;2023-02-25T00:32:21;31.30;;;15.00;;
39314;SDS011;28703;44.412;11.918;2023-02-25T00:34:47;35.38;;;16.25;;
39314;SDS011;28703;44.412;11.918;2023-02-25T00:37:13;36.25;;;16.30;;
39314;SDS011;28703;44.412;11.918;2023-02-25T00:39:39;30.23;;;16.20;;
39314;SDS011;28703;44.412;11.918;2023-02-25T00:44:44;35.60;;;16.17;;
39314;SDS011;28703;44.412;11.918;2023-02-25T00:47:11;23.73;;;15.80;;
39314;SDS011;28703;44.412;11.918;2023-02-25T00:49:38;31.05;;;16.77;;
39314;SDS011;28703;44.412;11.918;2023-02-25T00:52:04;31.73;;;15.68;;
39314;SDS011;28703;44.412;11.918;2023-02-25T00:54:32;37.67;;;17.88;;
39314;SDS011;28703;44.412;11.918;2023-02-25T00:56:59;38.10;;;18.80;;
39314;SDS011;28703;44.412;11.918;2023-02-25T00:59:25;33.55;;;18.60;;
39314;SDS011;28703;44.412;11.918;2023-02-25T01:01:51;33.05;;;19.38;;
39314;SDS011;28703;44.412;11.918;2023-02-25T01:04:17;36.10;;;19.52;;
39314;SDS011;28703;44.412;11.918;2023-02-25T01:06:43;36.45;;;19.65;;
39314;SDS011;28703;44.412;11.918;2023-02-25T01:09:09;30.45;;;18.73;;
39314;SDS011;28703;44.412;11.918;2023-02-25T01:11:39;40.63;;;18.50;;
39314;SDS011;28703;44.412;11.918;2023-02-25T01:14:09;36.88;;;18.50;;
39314;SDS011;28703;44.412;11.918;2023-02-25T01:16:37;30.48;;;16.23;;
39314;SDS011;28703;44.412;11.918;2023-02-25T01:19:08;27.25;;;15.25;;
39314;SDS011;28703;44.412;11.918;2023-02-25T01:21:38;34.20;;;16.42;;
39314;SDS011;28703;44.412;11.918;2023-02-25T01:24:09;26.80;;;14.50;;
39314;SDS011;28703;44.412;11.918;2023-02-25T01:26:37;27.83;;;12.48;;
39314;SDS011;28703;44.412;11.918;2023-02-25T01:29:07;24.33;;;11.43;;
39314;SDS011;28703;44.412;11.918;2023-02-25T01:31:34;20.63;;;10.60;;
39314;SDS011;28703;44.412;11.918;2023-02-25T01:34:03;29.42;;;11.77;;
39314;SDS011;28703;44.412;11.918;2023-02-25T01:36:31;19.52;;;9.45;;
39314;SDS011;28703;44.412;11.918;2023-02-25T01:38:58;24.35;;;10.38;;
39314;SDS011;28703;44.412;11.918;2023-02-25T01:41:25;27.30;;;10.10;;
39314;SDS011;28703;44.412;11.918;2023-02-25T01:46:37;18.33;;;9.98;;
39314;SDS011;28703;44.412;11.918;2023-02-25T01:51:47;22.93;;;8.83;;
39314;SDS011;28703;44.412;11.918;2023-02-25T01:54:16;21.33;;;9.85;;
39314;SDS011;28703;44.412;11.918;2023-02-25T01:56:44;13.90;;;9.23;;
39314;SDS011;28703;44.412;11.918;2023-02-25T01:59:15;19.52;;;8.80;;
39314;SDS011;28703;44.412;11.918;2023-02-25T02:01:42;18.38;;;8.68;;
39314;SDS011;28703;44.412;11.918;2023-02-25T02:04:09;17.95;;;9.88;;
39314;SDS011;28703;44.412;11.918;2023-02-25T02:06:39;19.10;;;8.98;;
39314;SDS011;28703;44.412;11.918;2023-02-25T02:09:09;16.83;;;8.88;;
39314;SDS011;28703;44.412;11.918;2023-02-25T02:11:38;16.50;;;8.75;;
39314;SDS011;28703;44.412;11.918;2023-02-25T02:14:05;26.70;;;10.27;;
39314;SDS011;28703;44.412;11.918;2023-02-25T02:46:24;20.65;;;10.88;;
39314;SDS011;28703;44.412;11.918;2023-02-25T02:48:55;22.92;;;10.15;;
39314;SDS011;28703;44.412;11.918;2023-02-25T02:51:36;26.15;;;9.57;;
39314;SDS011;28703;44.412;11.918;2023-02-25T02:54:07;20.73;;;10.07;;
39314;SDS011;28703;44.412;11.918;2023-02-25T02:56:35;24.60;;;10.52;;
39314;SDS011;28703;44.412;11.918;2023-02-25T02:59:07;21.02;;;10.30;;
39314;SDS011;28703;44.412;11.918;2023-02-25T03:01:40;21.40;;;10.75;;
39314;SDS011;28703;44.412;11.918;2023-02-25T03:04:21;19.42;;;9.65;;
39314;SDS011;28703;44.412;11.918;2023-02-25T03:06:50;22.65;;;9.95;;
39314;SDS011;28703;44.412;11.918;2023-02-25T03:09:42;22.40;;;10.82;;
39314;SDS011;28703;44.412;11.918;2023-02-25T03:12:16;22.85;;;10.75;;
39314;SDS011;28703;44.412;11.918;2023-02-25T03:14:42;26.17;;;10.45;;
39314;SDS011;28703;44.412;11.918;2023-02-25T03:17:28;24.70;;;11.65;;
39314;SDS011;28703;44.412;11.918;2023-02-25T03:22:37;22.58;;;10.90;;
39314;SDS011;28703;44.412;11.918;2023-02-25T03:25:09;23.60;;;10.68;;
39314;SDS011;28703;44.412;11.918;2023-02-25T03:27:44;20.40;;;10.32;;
39314;SDS011;28703;44.412;11.918;2023-02-25T03:30:19;22.42;;;11.65;;
39314;SDS011;28703;44.412;11.918;2023-02-25T03:33:06;18.02;;;10.07;;
39314;SDS011;28703;44.412;11.918;2023-02-25T03:35:37;24.67;;;11.35;;
39314;SDS011;28703;44.412;11.918;2023-02-25T03:38:13;22.00;;;10.10;;
39314;SDS011;28703;44.412;11.918;2023-02-25T03:40:44;19.45;;;10.10;;
39314;SDS011;28703;44.412;11.918;2023-02-25T03:46:19;13.13;;;8.45;;
39314;SDS011;28703;44.412;11.918;2023-02-25T03:48:46;19.45;;;8.80;;
39314;SDS011;28703;44.412;11.918;2023-02-25T03:51:34;21.42;;;11.00;;
39314;SDS011;28703;44.412;11.918;2023-02-25T03:54:03;19.40;;;9.75;;
39314;SDS011;28703;44.412;11.918;2023-02-25T03:56:40;14.85;;;9.35;;
39314;SDS011;28703;44.412;11.918;2023-02-25T03:59:44;16.75;;;8.68;;
39314;SDS011;28703;44.412;11.918;2023-02-25T04:02:11;16.95;;;8.55;;
39314;SDS011;28703;44.412;11.918;2023-02-25T04:04:57;18.80;;;8.65;;
39314;SDS011;28703;44.412;11.918;2023-02-25T04:07:24;19.98;;;8.93;;
39314;SDS011;28703;44.412;11.918;2023-02-25T04:10:09;16.85;;;8.75;;
39314;SDS011;28703;44.412;11.918;2023-02-25T04:12:37;15.52;;;8.90;;
39314;SDS011;28703;44.412;11.918;2023-02-25T04:15:06;24.88;;;9.38;;
39314;SDS011;28703;44.412;11.918;2023-02-25T04:17:33;19.20;;;8.95;;
39314;SDS011;28703;44.412;11.918;2023-02-25T04:20:01;19.63;;;9.27;;
39314;SDS011;28703;44.412;11.918;2023-02-25T04:22:29;18.17;;;9.10;;
39314;SDS011;28703;44.412;11.918;2023-02-25T04:27:40;14.82;;;8.73;;
39314;SDS011;28703;44.412;11.918;2023-02-25T04:30:06;26.02;;;10.52;;
39314;SDS011;28703;44.412;11.918;2023-02-25T04:32:32;16.80;;;9.30;;
39314;SDS011;28703;44.412;11.918;2023-02-25T04:34:58;16.00;;;9.45;;
39314;SDS011;28703;44.412;11.918;2023-02-25T04:37:27;13.95;;;8.90;;
39314;SDS011;28703;44.412;11.918;2023-02-25T04:40:16;20.40;;;9.27;;
39314;SDS011;28703;44.412;11.918;2023-02-25T04:42:44;18.58;;;9.57;;
39314;SDS011;28703;44.412;11.918;2023-02-25T04:45:14;16.30;;;9.20;;
39314;SDS011;28703;44.412;11.918;2023-02-25T04:47:41;20.92;;;10.68;;
39314;SDS011;28703;44.412;11.918;2023-02-25T04:50:26;21.98;;;9.50;;
39314;SDS011;28703;44.412;11.918;2023-02-25T04:52:52;15.75;;;9.02;;
39314;SDS011;28703;44.412;11.918;2023-02-25T04:55:18;17.73;;;10.20;;
39314;SDS011;28703;44.412;11.918;2023-02-25T04:57:44;27.15;;;10.40;;
39314;SDS011;28703;44.412;11.918;2023-02-25T05:00:12;20.58;;;10.35;;
39314;SDS011;28703;44.412;11.918;2023-02-25T05:02:41;16.40;;;10.15;;
39314;SDS011;28703;44.412;11.918;2023-02-25T05:05:08;20.50;;;10.65;;
39314;SDS011;28703;44.412;11.918;2023-02-25T05:07:34;18.45;;;11.20;;
39314;SDS011;28703;44.412;11.918;2023-02-25T05:10:00;19.00;;;11.02;;
39314;SDS011;28703;44.412;11.918;2023-02-25T05:12:29;19.52;;;11.30;;
39314;SDS011;28703;44.412;11.918;2023-02-25T05:14:55;17.83;;;11.48;;
39314;SDS011;28703;44.412;11.918;2023-02-25T05:17:21;27.38;;;12.45;;
39314;SDS011;28703;44.412;11.918;2023-02-25T05:20:25;23.23;;;12.05;;
39314;SDS011;28703;44.412;11.918;2023-02-25T05:23:09;23.80;;;11.93;;
39314;SDS011;28703;44.412;11.918;2023-02-25T05:25:39;17.45;;;10.90;;
39314;SDS011;28703;44.412;11.918;2023-02-25T05:28:08;18.90;;;12.15;;
39314;SDS011;28703;44.412;11.918;2023-02-25T05:30:36;22.80;;;12.30;;
39314;SDS011;28703;44.412;11.918;2023-02-25T05:33:03;22.23;;;11.65;;
39314;SDS011;28703;44.412;11.918;2023-02-25T05:35:30;24.83;;;12.57;;
39314;SDS011;28703;44.412;11.918;2023-02-25T05:37:57;22.85;;;12.95;;
39314;SDS011;28703;44.412;11.918;2023-02-25T05:40:23;17.45;;;12.57;;
39314;SDS011;28703;44.412;11.918;2023-02-25T05:42:49;26.33;;;14.45;;
39314;SDS011;28703;44.412;11.918;2023-02-25T05:45:34;31.48;;;14.20;;
39314;SDS011;28703;44.412;11.918;2023-02-25T05:53:49;35.50;;;17.88;;
39314;SDS011;28703;44.412;11.918;2023-02-25T05:59:03;27.58;;;14.95;;
39314;SDS011;28703;44.412;11.918;2023-02-25T06:01:29;30.65;;;15.60;;
39314;SDS011;28703;44.412;11.918;2023-02-25T06:06:40;37.30;;;17.70;;
39314;SDS011;28703;44.412;11.918;2023-02-25T06:09:06;29.63;;;18.17;;
39314;SDS011;28703;44.412;11.918;2023-02-25T06:11:52;31.15;;;19.77;;
39314;SDS011;28703;44.412;11.918;2023-02-25T06:14:37;42.58;;;29.65;;
39314;SDS011;28703;44.412;11.918;2023-02-25T06:17:21;31.30;;;21.73;;
39314;SDS011;28703;44.412;11.918;2023-02-25T06:19:51;27.50;;;18.92;;
39314;SDS011;28703;44.412;11.918;2023-02-25T06:22:41;28.30;;;18.27;;
39314;SDS011;28703;44.412;11.918;2023-02-25T06:25:07;32.05;;;17.05;;
39314;SDS011;28703;44.412;11.918;2023-02-25T06:27:39;34.88;;;19.35;;
39314;SDS011;28703;44.412;11.918;2023-02-25T06:30:24;28.13;;;18.58;;
39314;SDS011;28703;44.412;11.918;2023-02-25T06:32:54;24.67;;;17.52;;
39314;SDS011;28703;44.412;11.918;2023-02-25T06:35:20;25.45;;;17.30;;
39314;SDS011;28703;44.412;11.918;2023-02-25T06:37:57;31.15;;;18.02;;
39314;SDS011;28703;44.412;11.918;2023-02-25T06:40:24;26.58;;;17.77;;
39314;SDS011;28703;44.412;11.918;2023-02-25T06:42:50;32.67;;;18.02;;
39314;SDS011;28703;44.412;11.918;2023-02-25T06:45:18;24.63;;;17.70;;
39314;SDS011;28703;44.412;11.918;2023-02-25T06:47:47;27.92;;;17.40;;
39314;SDS011;28703;44.412;11.918;2023-02-25T06:50:16;50.38;;;34.20;;
39314;SDS011;28703;44.412;11.918;2023-02-25T06:52:44;36.53;;;25.98;;
39314;SDS011;28703;44.412;11.918;2023-02-25T06:55:10;30.10;;;21.58;;
39314;SDS011;28703;44.412;11.918;2023-02-25T06:57:39;35.72;;;21.88;;
39314;SDS011;28703;44.412;11.918;2023-02-25T07:00:05;30.58;;;22.95;;
39314;SDS011;28703;44.412;11.918;2023-02-25T07:02:33;35.45;;;22.52;;
39314;SDS011;28703;44.412;11.918;2023-02-25T07:04:59;32.65;;;20.88;;
39314;SDS011;28703;44.412;11.918;2023-02-25T07:07:45;30.70;;;19.20;;
39314;SDS011;28703;44.412;11.918;2023-02-25T07:10:29;30.15;;;16.40;;
39314;SDS011;28703;44.412;11.918;2023-02-25T07:13:14;31.40;;;17.25;;
39314;SDS011;28703;44.412;11.918;2023-02-25T07:15:40;25.38;;;16.83;;
39314;SDS011;28703;44.412;11.918;2023-02-25T07:18:24;45.90;;;27.17;;
39314;SDS011;28703;44.412;11.918;2023-02-25T07:20:50;49.72;;;33.08;;
39314;SDS011;28703;44.412;11.918;2023-02-25T07:32:07;66.32;;;43.85;;
39314;SDS011;28703;44.412;11.918;2023-02-25T07:34:54;79.53;;;44.85;;
39314;SDS011;28703;44.412;11.918;2023-02-25T07:37:20;78.80;;;45.47;;
39314;SDS011;28703;44.412;11.918;2023-02-25T07:42:50;72.85;;;45.88;;
39314;SDS011;28703;44.412;11.918;2023-02-25T07:45:34;75.63;;;45.03;;
39314;SDS011;28703;44.412;11.918;2023-02-25T07:48:00;76.55;;;47.38;;
39314;SDS011;28703;44.412;11.918;2023-02-25T07:50:47;81.35;;;46.20;;
39314;SDS011;28703;44.412;11.918;2023-02-25T07:56:40;77.75;;;45.75;;
39314;SDS011;28703;44.412;11.918;2023-02-25T07:59:06;73.30;;;45.55;;
39314;SDS011;28703;44.412;11.918;2023-02-25T08:01:32;79.70;;;47.75;;
39314;SDS011;28703;44.412;11.918;2023-02-25T08:03:59;80.50;;;48.58;;
39314;SDS011;28703;44.412;11.918;2023-02-25T08:06:47;76.10;;;47.17;;
39314;SDS011;28703;44.412;11.918;2023-02-25T08:09:13;79.20;;;50.22;;
39314;SDS011;28703;44.412;11.918;2023-02-25T08:11:58;80.07;;;49.95;;
39314;SDS011;28703;44.412;11.918;2023-02-25T08:14:24;71.93;;;43.75;;
39314;SDS011;28703;44.412;11.918;2023-02-25T08:19:35;84.65;;;47.92;;
39314;SDS011;28703;44.412;11.918;2023-02-25T08:22:20;77.75;;;49.33;;
39314;SDS011;28703;44.412;11.918;2023-02-25T08:24:46;86.47;;;48.08;;
39314;SDS011;28703;44.412;11.918;2023-02-25T08:29:57;110.15;;;69.60;;
39314;SDS011;28703;44.412;11.918;2023-02-25T08:32:25;106.03;;;69.75;;
39314;SDS011;28703;44.412;11.918;2023-02-25T08:38:01;98.05;;;56.63;;
39314;SDS011;28703;44.412;11.918;2023-02-25T08:40:27;96.05;;;53.72;;
39314;SDS011;28703;44.412;11.918;2023-02-25T08:42:53;86.18;;;53.55;;
39314;SDS011;28703;44.412;11.918;2023-02-25T09:16:14;109.18;;;69.40;;
39314;SDS011;28703;44.412;11.918;2023-02-25T09:18:45;103.63;;;64.13;;
39314;SDS011;28703;44.412;11.918;2023-02-25T09:21:11;78.80;;;50.55;;
39314;SDS011;28703;44.412;11.918;2023-02-25T09:23:38;73.45;;;48.03;;
39314;SDS011;28703;44.412;11.918;2023-02-25T09:26:05;78.40;;;44.00;;
39314;SDS011;28703;44.412;11.918;2023-02-25T09:28:32;60.63;;;41.13;;
39314;SDS011;28703;44.412;11.918;2023-02-25T09:30:58;68.72;;;42.85;;
39314;SDS011;28703;44.412;11.918;2023-02-25T09:33:26;56.95;;;39.65;;
39314;SDS011;28703;44.412;11.918;2023-02-25T09:35:53;62.47;;;41.08;;
39314;SDS011;28703;44.412;11.918;2023-02-25T09:38:22;55.92;;;36.50;;
39314;SDS011;28703;44.412;11.918;2023-02-25T09:40:48;71.38;;;39.58;;
39314;SDS011;28703;44.412;11.918;2023-02-25T09:43:19;58.35;;;37.53;;
39314;SDS011;28703;44.412;11.918;2023-02-25T09:45:56;65.72;;;40.30;;
39314;SDS011;28703;44.412;11.918;2023-02-25T09:48:33;62.53;;;39.65;;
39314;SDS011;28703;44.412;11.918;2023-02-25T09:51:21;63.53;;;39.35;;
39314;SDS011;28703;44.412;11.918;2023-02-25T09:53:56;70.60;;;43.92;;
39314;SDS011;28703;44.412;11.918;2023-02-25T09:56:37;61.03;;;41.47;;
39314;SDS011;28703;44.412;11.918;2023-02-25T09:59:07;67.32;;;41.78;;
39314;SDS011;28703;44.412;11.918;2023-02-25T10:01:41;51.83;;;36.97;;
39314;SDS011;28703;44.412;11.918;2023-02-25T10:04:31;61.55;;;41.45;;
39314;SDS011;28703;44.412;11.918;2023-02-25T10:07:27;63.00;;;42.88;;
39314;SDS011;28703;44.412;11.918;2023-02-25T10:12:53;64.13;;;42.45;;
39314;SDS011;28703;44.412;11.918;2023-02-25T10:15:41;60.28;;;40.17;;
39314;SDS011;28703;44.412;11.918;2023-02-25T10:18:25;64.15;;;37.78;;
39314;SDS011;28703;44.412;11.918;2023-02-25T10:21:21;67.15;;;39.40;;
39314;SDS011;28703;44.412;11.918;2023-02-25T10:26:59;54.33;;;40.35;;
39314;SDS011;28703;44.412;11.918;2023-02-25T10:29:39;55.28;;;38.17;;
39314;SDS011;28703;44.412;11.918;2023-02-25T10:32:34;62.47;;;40.05;;
39314;SDS011;28703;44.412;11.918;2023-02-25T10:35:11;59.53;;;40.33;;
39314;SDS011;28703;44.412;11.918;2023-02-25T10:37:41;71.18;;;42.00;;
39314;SDS011;28703;44.412;11.918;2023-02-25T10:40:18;66.88;;;43.63;;
39314;SDS011;28703;44.412;11.918;2023-02-25T10:42:50;62.42;;;38.67;;
39314;SDS011;28703;44.412;11.918;2023-02-25T10:45:19;59.85;;;42.50;;
39314;SDS011;28703;44.412;11.918;2023-02-25T10:48:00;70.28;;;42.10;;
39314;SDS011;28703;44.412;11.918;2023-02-25T10:50:32;54.67;;;39.42;;
39314;SDS011;28703;44.412;11.918;2023-02-25T10:53:03;54.65;;;39.45;;
39314;SDS011;28703;44.412;11.918;2023-02-25T10:58:05;54.35;;;35.58;;
39314;SDS011;28703;44.412;11.918;2023-02-25T11:03:52;67.03;;;43.10;;
39314;SDS011;28703;44.412;11.918;2023-02-25T11:06:35;68.45;;;44.72;;
39314;SDS011;28703;44.412;11.918;2023-02-25T11:09:09;66.68;;;39.38;;
39314;SDS011;28703;44.412;11.918;2023-02-25T11:11:52;60.90;;;39.55;;
39314;SDS011;28703;44.412;11.918;2023-02-25T11:14:25;66.45;;;40.88;;
39314;SDS011;28703;44.412;11.918;2023-02-25T11:17:00;60.38;;;40.53;;
39314;SDS011;28703;44.412;11.918;2023-02-25T11:19:46;56.92;;;37.90;;
39314;SDS011;28703;44.412;11.918;2023-02-25T11:22:18;56.30;;;38.72;;
39314;SDS011;28703;44.412;11.918;2023-02-25T11:24:57;67.40;;;40.75;;
39314;SDS011;28703;44.412;11.918;2023-02-25T11:27:35;67.32;;;41.40;;
39314;SDS011;28703;44.412;11.918;2023-02-25T11:30:18;66.18;;;40.92;;
39314;SDS011;28703;44.412;11.918;2023-02-25T11:32:55;59.00;;;38.78;;
39314;SDS011;28703;44.412;11.918;2023-02-25T11:35:26;70.00;;;46.17;;
39314;SDS011;28703;44.412;11.918;2023-02-25T11:38:45;60.50;;;39.47;;
39314;SDS011;28703;44.412;11.918;2023-02-25T11:40:55;56.03;;;37.53;;
39314;SDS011;28703;44.412;11.918;2023-02-25T11:43:22;68.28;;;44.08;;
39314;SDS011;28703;44.412;11.918;2023-02-25T11:45:51;99.80;;;58.35;;
39314;SDS011;28703;44.412;11.918;2023-02-25T12:04:42;72.40;;;45.55;;
39314;SDS011;28703;44.412;11.918;2023-02-25T12:07:32;63.50;;;45.10;;
39314;SDS011;28703;44.412;11.918;2023-02-25T12:10:27;71.60;;;46.25;;
39314;SDS011;28703;44.412;11.918;2023-02-25T12:30:05;57.87;;;39.83;;
39314;SDS011;28703;44.412;11.918;2023-02-25T12:38:22;65.50;;;38.63;;
39314;SDS011;28703;44.412;11.918;2023-02-25T12:44:12;58.03;;;38.20;;
39314;SDS011;28703;44.412;11.918;2023-02-25T12:54:20;64.65;;;43.25;;
39314;SDS011;28703;44.412;11.918;2023-02-25T12:59:59;57.58;;;38.45;;
39314;SDS011;28703;44.412;11.918;2023-02-25T13:02:56;66.88;;;39.42;;
39314;SDS011;28703;44.412;11.918;2023-02-25T13:13:41;54.67;;;35.97;;
39314;SDS011;28703;44.412;11.918;2023-02-25T13:19:31;72.07;;;36.97;;
39314;SDS011;28703;44.412;11.918;2023-02-25T13:28:54;71.55;;;36.60;;
39314;SDS011;28703;44.412;11.918;2023-02-25T13:57:25;77.90;;;43.65;;
39314;SDS011;28703;44.412;11.918;2023-02-25T14:11:41;64.70;;;40.15;;
39314;SDS011;28703;44.412;11.918;2023-02-25T14:22:43;70.13;;;35.80;;
39314;SDS011;28703;44.412;11.918;2023-02-25T14:30:42;55.47;;;34.17;;
39314;SDS011;28703;44.412;11.918;2023-02-25T14:39:04;51.20;;;31.27;;
39314;SDS011;28703;44.412;11.918;2023-02-25T14:44:42;55.22;;;28.48;;
39314;SDS011;28703;44.412;11.918;2023-02-25T14:47:20;47.65;;;27.90;;
39314;SDS011;28703;44.412;11.918;2023-02-25T14:55:39;43.85;;;25.50;;
39314;SDS011;28703;44.412;11.918;2023-02-25T15:01:21;60.67;;;31.40;;
39314;SDS011;28703;44.412;11.918;2023-02-25T15:10:16;60.88;;;40.40;;
39314;SDS011;28703;44.412;11.918;2023-02-25T15:15:56;66.70;;;41.67;;
39314;SDS011;28703;44.412;11.918;2023-02-25T15:21:38;79.43;;;48.70;;
39314;SDS011;28703;44.412;11.918;2023-02-25T15:24:48;82.43;;;49.53;;
39314;SDS011;28703;44.412;11.918;2023-02-25T15:30:03;82.85;;;50.55;;
39314;SDS011;28703;44.412;11.918;2023-02-25T15:40:44;50.65;;;24.25;;
39314;SDS011;28703;44.412;11.918;2023-02-25T15:48:37;25.25;;;14.85;;
39314;SDS011;28703;44.412;11.918;2023-02-25T15:51:09;22.13;;;12.48;;
39314;SDS011;28703;44.412;11.918;2023-02-25T15:53:57;29.27;;;12.98;;
39314;SDS011;28703;44.412;11.918;2023-02-25T15:56:27;32.92;;;14.27;;
39314;SDS011;28703;44.412;11.918;2023-02-25T15:58:59;31.75;;;14.35;;
39314;SDS011;28703;44.412;11.918;2023-02-25T16:01:41;26.52;;;12.18;;
39314;SDS011;28703;44.412;11.918;2023-02-25T16:07:11;28.15;;;13.30;;
39314;SDS011;28703;44.412;11.918;2023-02-25T16:09:40;34.50;;;14.10;;
39314;SDS011;28703;44.412;11.918;2023-02-25T16:12:12;42.25;;;14.45;;
39314;SDS011;28703;44.412;11.918;2023-02-25T16:14:41;34.28;;;15.07;;
39314;SDS011;28703;44.412;11.918;2023-02-25T16:17:19;34.38;;;15.90;;
39314;SDS011;28703;44.412;11.918;2023-02-25T16:19:50;39.83;;;15.52;;
39314;SDS011;28703;44.412;11.918;2023-02-25T16:22:37;39.67;;;16.77;;
39314;SDS011;28703;44.412;11.918;2023-02-25T16:25:10;35.42;;;16.42;;
39314;SDS011;28703;44.412;11.918;2023-02-25T16:28:42;36.40;;;16.33;;
39314;SDS011;28703;44.412;11.918;2023-02-25T16:30:40;37.55;;;17.45;;
39314;SDS011;28703;44.412;11.918;2023-02-25T16:33:22;52.40;;;18.95;;
39314;SDS011;28703;44.412;11.918;2023-02-25T16:36:07;38.85;;;18.08;;
39314;SDS011;28703;44.412;11.918;2023-02-25T16:39:00;45.70;;;19.15;;
39314;SDS011;28703;44.412;11.918;2023-02-25T16:41:34;48.97;;;19.73;;
39314;SDS011;28703;44.412;11.918;2023-02-25T16:44:03;34.95;;;18.40;;
39314;SDS011;28703;44.412;11.918;2023-02-25T16:46:30;41.67;;;19.90;;
39314;SDS011;28703;44.412;11.918;2023-02-25T16:48:59;43.40;;;20.25;;
39314;SDS011;28703;44.412;11.918;2023-02-25T16:51:33;47.60;;;20.42;;
39314;SDS011;28703;44.412;11.918;2023-02-25T16:54:07;44.72;;;19.80;;
39314;SDS011;28703;44.412;11.918;2023-02-25T16:56:37;46.97;;;21.58;;
39314;SDS011;28703;44.412;11.918;2023-02-25T17:01:37;59.25;;;23.00;;
39314;SDS011;28703;44.412;11.918;2023-02-25T17:07:16;49.60;;;23.98;;
39314;SDS011;28703;44.412;11.918;2023-02-25T17:12:42;59.70;;;22.98;;
39314;SDS011;28703;44.412;11.918;2023-02-25T17:17:49;66.85;;;23.63;;
39314;SDS011;28703;44.412;11.918;2023-02-25T17:20:23;61.63;;;22.92;;
39314;SDS011;28703;44.412;11.918;2023-02-25T17:22:53;62.00;;;21.60;;
39314;SDS011;28703;44.412;11.918;2023-02-25T17:25:21;41.97;;;20.95;;
39314;SDS011;28703;44.412;11.918;2023-02-25T17:27:54;53.38;;;22.70;;
39314;SDS011;28703;44.412;11.918;2023-02-25T17:33:01;43.72;;;21.25;;
39314;SDS011;28703;44.412;11.918;2023-02-25T17:35:27;51.28;;;21.83;;
39314;SDS011;28703;44.412;11.918;2023-02-25T17:37:54;40.10;;;21.75;;
39314;SDS011;28703;44.412;11.918;2023-02-25T17:40:23;37.97;;;20.15;;
39314;SDS011;28703;44.412;11.918;2023-02-25T17:43:15;50.70;;;23.33;;
39314;SDS011;28703;44.412;11.918;2023-02-25T17:48:25;47.80;;;24.52;;
39314;SDS011;28703;44.412;11.918;2023-02-25T17:50:58;45.47;;;24.92;;
39314;SDS011;28703;44.412;11.918;2023-02-25T17:54:02;52.25;;;27.15;;
39314;SDS011;28703;44.412;11.918;2023-02-25T17:56:25;45.83;;;24.92;;
39314;SDS011;28703;44.412;11.918;2023-02-25T17:59:02;50.65;;;26.70;;
39314;SDS011;28703;44.412;11.918;2023-02-25T18:01:43;51.67;;;28.70;;
39314;SDS011;28703;44.412;11.918;2023-02-25T18:06:57;54.78;;;28.50;;
39314;SDS011;28703;44.412;11.918;2023-02-25T18:09:35;54.72;;;28.95;;
39314;SDS011;28703;44.412;11.918;2023-02-25T18:12:04;55.92;;;31.27;;
39314;SDS011;28703;44.412;11.918;2023-02-25T18:17:09;57.22;;;31.20;;
39314;SDS011;28703;44.412;11.918;2023-02-25T18:19:38;62.45;;;33.17;;
39314;SDS011;28703;44.412;11.918;2023-02-25T18:22:07;54.65;;;32.83;;
39314;SDS011;28703;44.412;11.918;2023-02-25T18:24:53;56.00;;;31.35;;
39314;SDS011;28703;44.412;11.918;2023-02-25T18:27:22;54.70;;;29.85;;
39314;SDS011;28703;44.412;11.918;2023-02-25T18:29:55;62.22;;;31.92;;
39314;SDS011;28703;44.412;11.918;2023-02-25T18:32:42;45.55;;;29.38;;
39314;SDS011;28703;44.412;11.918;2023-02-25T18:35:09;56.03;;;29.35;;
39314;SDS011;28703;44.412;11.918;2023-02-25T18:37:35;64.40;;;32.00;;
39314;SDS011;28703;44.412;11.918;2023-02-25T18:40:02;72.65;;;36.67;;
39314;SDS011;28703;44.412;11.918;2023-02-25T18:42:29;75.22;;;42.30;;
39314;SDS011;28703;44.412;11.918;2023-02-25T18:44:55;71.90;;;39.88;;
39314;SDS011;28703;44.412;11.918;2023-02-25T18:47:21;66.15;;;36.97;;
39314;SDS011;28703;44.412;11.918;2023-02-25T18:49:47;54.88;;;32.30;;
39314;SDS011;28703;44.412;11.918;2023-02-25T18:52:19;54.65;;;32.40;;
39314;SDS011;28703;44.412;11.918;2023-02-25T18:54:49;52.65;;;32.45;;
39314;SDS011;28703;44.412;11.918;2023-02-25T18:57:17;72.90;;;32.60;;
39314;SDS011;28703;44.412;11.918;2023-02-25T18:59:46;57.30;;;31.77;;
39314;SDS011;28703;44.412;11.918;2023-02-25T19:02:20;47.15;;;30.17;;
39314;SDS011;28703;44.412;11.918;2023-02-25T19:04:47;52.22;;;29.27;;
39314;SDS011;28703;44.412;11.918;2023-02-25T19:07:13;50.72;;;30.33;;
39314;SDS011;28703;44.412;11.918;2023-02-25T19:09:39;53.53;;;30.60;;
39314;SDS011;28703;44.412;11.918;2023-02-25T19:12:05;58.30;;;31.42;;
39314;SDS011;28703;44.412;11.918;2023-02-25T19:14:36;55.28;;;30.48;;
39314;SDS011;28703;44.412;11.918;2023-02-25T19:17:04;55.22;;;30.38;;
39314;SDS011;28703;44.412;11.918;2023-02-25T19:19:31;60.53;;;30.65;;
39314;SDS011;28703;44.412;11.918;2023-02-25T19:21:58;49.70;;;31.50;;
39314;SDS011;28703;44.412;11.918;2023-02-25T19:24:24;50.75;;;29.33;;
39314;SDS011;28703;44.412;11.918;2023-02-25T19:26:50;53.92;;;30.50;;
39314;SDS011;28703;44.412;11.918;2023-02-25T19:29:26;56.22;;;29.10;;
39314;SDS011;28703;44.412;11.918;2023-02-25T19:31:51;51.88;;;29.85;;
39314;SDS011;28703;44.412;11.918;2023-02-25T19:34:17;66.53;;;38.20;;
39314;SDS011;28703;44.412;11.918;2023-02-25T19:36:44;66.40;;;34.28;;
39314;SDS011;28703;44.412;11.918;2023-02-25T19:39:10;65.88;;;39.67;;
39314;SDS011;28703;44.412;11.918;2023-02-25T19:41:35;79.00;;;46.55;;
39314;SDS011;28703;44.412;11.918;2023-02-25T19:44:03;83.40;;;49.80;;
39314;SDS011;28703;44.412;11.918;2023-02-25T19:46:29;75.80;;;48.60;;
39314;SDS011;28703;44.412;11.918;2023-02-25T19:48:57;84.22;;;49.92;;
39314;SDS011;28703;44.412;11.918;2023-02-25T19:51:23;63.65;;;40.03;;
39314;SDS011;28703;44.412;11.918;2023-02-25T19:53:49;67.55;;;42.33;;
39314;SDS011;28703;44.412;11.918;2023-02-25T19:56:15;67.82;;;47.40;;
39314;SDS011;28703;44.412;11.918;2023-02-25T19:58:42;68.35;;;38.83;;